sensor_id;sensor_type;location;lat;lon;timestamp;temperature;humidity
8947;DHT22;4508;48.790;9.028;2022-08-21T00:01:35;16.20;99.90
8947;DHT22;4508;48.790;9.028;2022-08-21T00:04:06;16.10;99.90
8947;DHT22;4508;48.790;9.028;2022-08-21T00:06:33;15.90;99.90
8947;DHT22;4508;48.790;9.028;2022-08-21T00:09:01;15.90;99.90
8947;DHT22;4508;48.790;9.028;2022-08-21T00:11:28;15.80;99.90
8947;DHT22;4508;48.790;9.028;2022-08-21T00:13:55;15.80;99.90
8947;DHT22;4508;48.790;9.028;2022-08-21T00:16:22;15.70;99.90
8947;DHT22;4508;48.790;9.028;2022-08-21T00:18:49;15.70;99.90
8947;DHT22;4508;48.790;9.028;2022-08-21T00:21:17;15.60;99.90
8947;DHT22;4508;48.790;9.028;2022-08-21T00:23:45;15.40;99.90
8947;DHT22;4508;48.790;9.028;2022-08-21T00:26:12;15.40;99.90
8947;DHT22;4508;48.790;9.028;2022-08-21T00:28:39;15.40;99.90
8947;DHT22;4508;48.790;9.028;2022-08-21T00:31:05;15.40;99.90
8947;DHT22;4508;48.790;9.028;2022-08-21T00:33:33;15.30;99.90
8947;DHT22;4508;48.790;9.028;2022-08-21T00:36:00;15.30;99.90
8947;DHT22;4508;48.790;9.028;2022-08-21T00:38:28;15.30;99.90
8947;DHT22;4508;48.790;9.028;2022-08-21T00:40:57;15.30;99.90
8947;DHT22;4508;48.790;9.028;2022-08-21T00:43:27;15.30;99.90
8947;DHT22;4508;48.790;9.028;2022-08-21T00:45:55;15.20;99.90
8947;DHT22;4508;48.790;9.028;2022-08-21T00:48:23;15.00;99.90
8947;DHT22;4508;48.790;9.028;2022-08-21T00:50:56;15.20;99.90
8947;DHT22;4508;48.790;9.028;2022-08-21T00:53:25;15.00;99.90
8947;DHT22;4508;48.790;9.028;2022-08-21T00:55:54;15.00;99.90
8947;DHT22;4508;48.790;9.028;2022-08-21T00:58:22;15.00;99.90
8947;DHT22;4508;48.790;9.028;2022-08-21T01:00:52;15.00;99.90
8947;DHT22;4508;48.790;9.028;2022-08-21T01:03:22;15.00;99.90
8947;DHT22;4508;48.790;9.028;2022-08-21T01:05:50;15.20;99.90
8947;DHT22;4508;48.790;9.028;2022-08-21T01:08:18;15.10;99.90
8947;DHT22;4508;48.790;9.028;2022-08-21T01:10:46;15.20;99.90
8947;DHT22;4508;48.790;9.028;2022-08-21T01:13:17;15.30;99.90
8947;DHT22;4508;48.790;9.028;2022-08-21T01:15:46;15.30;99.90
8947;DHT22;4508;48.790;9.028;2022-08-21T01:18:15;15.20;99.90
8947;DHT22;4508;48.790;9.028;2022-08-21T01:20:45;15.20;99.90
8947;DHT22;4508;48.790;9.028;2022-08-21T01:23:13;15.10;99.90
8947;DHT22;4508;48.790;9.028;2022-08-21T01:25:40;15.20;99.90
8947;DHT22;4508;48.790;9.028;2022-08-21T01:28:13;15.10;99.90
8947;DHT22;4508;48.790;9.028;2022-08-21T01:30:42;15.10;99.90
8947;DHT22;4508;48.790;9.028;2022-08-21T01:33:10;15.00;99.90
8947;DHT22;4508;48.790;9.028;2022-08-21T01:35:37;14.90;99.90
8947;DHT22;4508;48.790;9.028;2022-08-21T01:38:04;14.90;99.90
8947;DHT22;4508;48.790;9.028;2022-08-21T01:40:32;14.80;99.90
8947;DHT22;4508;48.790;9.028;2022-08-21T01:42:59;14.70;99.90
8947;DHT22;4508;48.790;9.028;2022-08-21T01:45:26;14.70;99.90
8947;DHT22;4508;48.790;9.028;2022-08-21T01:47:53;14.60;99.90
8947;DHT22;4508;48.790;9.028;2022-08-21T01:50:20;14.70;99.90
8947;DHT22;4508;48.790;9.028;2022-08-21T01:52:48;14.60;99.90
8947;DHT22;4508;48.790;9.028;2022-08-21T01:55:16;14.70;99.90
8947;DHT22;4508;48.790;9.028;2022-08-21T01:57:45;14.60;99.90
8947;DHT22;4508;48.790;9.028;2022-08-21T02:00:15;14.70;99.90
8947;DHT22;4508;48.790;9.028;2022-08-21T02:02:42;14.80;99.90
8947;DHT22;4508;48.790;9.028;2022-08-21T02:05:11;14.80;99.90
8947;DHT22;4508;48.790;9.028;2022-08-21T02:07:39;14.80;99.90
8947;DHT22;4508;48.790;9.028;2022-08-21T02:10:08;14.70;99.90
8947;DHT22;4508;48.790;9.028;2022-08-21T02:12:36;14.70;99.90
8947;DHT22;4508;48.790;9.028;2022-08-21T02:15:05;14.80;99.90
8947;DHT22;4508;48.790;9.028;2022-08-21T02:17:40;14.60;99.90
8947;DHT22;4508;48.790;9.028;2022-08-21T02:20:09;14.60;99.90
8947;DHT22;4508;48.790;9.028;2022-08-21T02:22:36;14.50;99.90
8947;DHT22;4508;48.790;9.028;2022-08-21T02:25:03;14.50;99.90
8947;DHT22;4508;48.790;9.028;2022-08-21T02:27:37;14.40;99.90
8947;DHT22;4508;48.790;9.028;2022-08-21T02:30:07;14.40;99.90
8947;DHT22;4508;48.790;9.028;2022-08-21T02:32:34;14.40;99.90
8947;DHT22;4508;48.790;9.028;2022-08-21T02:35:02;14.40;99.90
8947;DHT22;4508;48.790;9.028;2022-08-21T02:37:29;14.20;99.90
8947;DHT22;4508;48.790;9.028;2022-08-21T02:39:56;14.10;99.90
8947;DHT22;4508;48.790;9.028;2022-08-21T02:42:22;14.10;99.90
8947;DHT22;4508;48.790;9.028;2022-08-21T02:44:49;14.20;99.90
8947;DHT22;4508;48.790;9.028;2022-08-21T02:47:17;14.30;99.90
8947;DHT22;4508;48.790;9.028;2022-08-21T02:49:44;14.20;99.90
8947;DHT22;4508;48.790;9.028;2022-08-21T02:52:11;14.10;99.90
8947;DHT22;4508;48.790;9.028;2022-08-21T02:54:40;14.00;99.90
8947;DHT22;4508;48.790;9.028;2022-08-21T02:57:06;14.00;99.90
8947;DHT22;4508;48.790;9.028;2022-08-21T02:59:33;13.90;99.90
8947;DHT22;4508;48.790;9.028;2022-08-21T03:02:00;13.90;99.90
8947;DHT22;4508;48.790;9.028;2022-08-21T03:04:29;13.80;99.90
8947;DHT22;4508;48.790;9.028;2022-08-21T03:06:55;13.70;99.90
8947;DHT22;4508;48.790;9.028;2022-08-21T03:09:22;13.60;99.90
8947;DHT22;4508;48.790;9.028;2022-08-21T03:11:49;13.60;99.90
8947;DHT22;4508;48.790;9.028;2022-08-21T03:14:16;13.50;99.90
8947;DHT22;4508;48.790;9.028;2022-08-21T03:16:43;13.60;99.90
8947;DHT22;4508;48.790;9.028;2022-08-21T03:19:10;13.50;99.90
8947;DHT22;4508;48.790;9.028;2022-08-21T03:21:38;13.40;99.90
8947;DHT22;4508;48.790;9.028;2022-08-21T03:24:06;13.40;99.90
8947;DHT22;4508;48.790;9.028;2022-08-21T03:26:34;13.30;99.90
8947;DHT22;4508;48.790;9.028;2022-08-21T03:29:01;13.30;99.90
8947;DHT22;4508;48.790;9.028;2022-08-21T03:31:28;13.30;99.90
8947;DHT22;4508;48.790;9.028;2022-08-21T03:33:57;13.20;99.90
8947;DHT22;4508;48.790;9.028;2022-08-21T03:36:24;13.20;99.90
8947;DHT22;4508;48.790;9.028;2022-08-21T03:38:52;13.10;99.90
8947;DHT22;4508;48.790;9.028;2022-08-21T03:41:19;13.10;99.90
8947;DHT22;4508;48.790;9.028;2022-08-21T03:43:46;13.10;99.90
8947;DHT22;4508;48.790;9.028;2022-08-21T03:46:13;13.10;99.90
8947;DHT22;4508;48.790;9.028;2022-08-21T03:48:40;13.10;99.90
8947;DHT22;4508;48.790;9.028;2022-08-21T03:51:07;13.10;99.90
8947;DHT22;4508;48.790;9.028;2022-08-21T03:53:34;13.10;99.90
8947;DHT22;4508;48.790;9.028;2022-08-21T03:56:03;13.00;99.90
8947;DHT22;4508;48.790;9.028;2022-08-21T03:58:31;12.90;99.90
8947;DHT22;4508;48.790;9.028;2022-08-21T04:01:00;12.80;99.90
8947;DHT22;4508;48.790;9.028;2022-08-21T04:03:27;13.00;99.90
8947;DHT22;4508;48.790;9.028;2022-08-21T04:05:54;13.00;99.90
8947;DHT22;4508;48.790;9.028;2022-08-21T04:08:21;13.00;99.90
8947;DHT22;4508;48.790;9.028;2022-08-21T04:10:50;13.10;99.90
8947;DHT22;4508;48.790;9.028;2022-08-21T04:13:19;13.00;99.90
8947;DHT22;4508;48.790;9.028;2022-08-21T04:15:46;13.00;99.90
8947;DHT22;4508;48.790;9.028;2022-08-21T04:18:13;12.90;99.90
8947;DHT22;4508;48.790;9.028;2022-08-21T04:20:41;12.90;99.90
8947;DHT22;4508;48.790;9.028;2022-08-21T04:23:09;12.90;99.90
8947;DHT22;4508;48.790;9.028;2022-08-21T04:25:36;12.90;99.90
8947;DHT22;4508;48.790;9.028;2022-08-21T04:28:03;12.70;99.90
8947;DHT22;4508;48.790;9.028;2022-08-21T04:30:31;12.70;99.90
8947;DHT22;4508;48.790;9.028;2022-08-21T04:32:58;12.60;99.90
8947;DHT22;4508;48.790;9.028;2022-08-21T04:35:27;12.60;99.90
8947;DHT22;4508;48.790;9.028;2022-08-21T04:37:54;12.50;99.90
8947;DHT22;4508;48.790;9.028;2022-08-21T04:40:23;12.60;99.90
8947;DHT22;4508;48.790;9.028;2022-08-21T04:42:53;12.60;99.90
8947;DHT22;4508;48.790;9.028;2022-08-21T04:45:22;12.70;99.90
8947;DHT22;4508;48.790;9.028;2022-08-21T04:47:51;12.60;99.90
8947;DHT22;4508;48.790;9.028;2022-08-21T04:50:19;12.60;99.90
8947;DHT22;4508;48.790;9.028;2022-08-21T04:52:46;12.60;99.90
8947;DHT22;4508;48.790;9.028;2022-08-21T04:55:14;12.50;99.90
8947;DHT22;4508;48.790;9.028;2022-08-21T04:57:42;12.70;99.90
8947;DHT22;4508;48.790;9.028;2022-08-21T05:00:10;13.00;99.90
8947;DHT22;4508;48.790;9.028;2022-08-21T05:02:39;13.80;99.90
8947;DHT22;4508;48.790;9.028;2022-08-21T05:05:08;14.80;99.90
8947;DHT22;4508;48.790;9.028;2022-08-21T05:07:36;15.70;99.90
8947;DHT22;4508;48.790;9.028;2022-08-21T05:10:04;16.20;99.90
8947;DHT22;4508;48.790;9.028;2022-08-21T05:12:33;16.40;99.90
8947;DHT22;4508;48.790;9.028;2022-08-21T05:15:00;16.10;99.90
8947;DHT22;4508;48.790;9.028;2022-08-21T05:17:27;15.50;99.90
8947;DHT22;4508;48.790;9.028;2022-08-21T05:19:54;15.30;99.90
8947;DHT22;4508;48.790;9.028;2022-08-21T05:22:23;15.80;99.90
8947;DHT22;4508;48.790;9.028;2022-08-21T05:24:51;16.30;99.90
8947;DHT22;4508;48.790;9.028;2022-08-21T05:27:18;16.20;99.90
8947;DHT22;4508;48.790;9.028;2022-08-21T05:29:45;16.30;99.90
8947;DHT22;4508;48.790;9.028;2022-08-21T05:32:13;16.30;99.90
8947;DHT22;4508;48.790;9.028;2022-08-21T05:34:40;16.20;99.90
8947;DHT22;4508;48.790;9.028;2022-08-21T05:37:10;15.90;99.90
8947;DHT22;4508;48.790;9.028;2022-08-21T05:39:38;15.70;99.90
8947;DHT22;4508;48.790;9.028;2022-08-21T05:42:06;15.30;99.90
8947;DHT22;4508;48.790;9.028;2022-08-21T05:44:32;15.10;99.90
8947;DHT22;4508;48.790;9.028;2022-08-21T05:47:03;14.90;99.90
8947;DHT22;4508;48.790;9.028;2022-08-21T05:49:30;15.60;99.90
8947;DHT22;4508;48.790;9.028;2022-08-21T05:51:56;16.00;99.90
8947;DHT22;4508;48.790;9.028;2022-08-21T05:54:23;16.10;99.90
8947;DHT22;4508;48.790;9.028;2022-08-21T05:56:52;16.40;99.90
8947;DHT22;4508;48.790;9.028;2022-08-21T05:59:19;16.60;99.90
8947;DHT22;4508;48.790;9.028;2022-08-21T06:01:46;16.80;99.90
8947;DHT22;4508;48.790;9.028;2022-08-21T06:04:13;16.70;99.90
8947;DHT22;4508;48.790;9.028;2022-08-21T06:06:40;17.00;99.90
8947;DHT22;4508;48.790;9.028;2022-08-21T06:09:07;17.10;99.90
8947;DHT22;4508;48.790;9.028;2022-08-21T06:11:34;17.40;99.90
8947;DHT22;4508;48.790;9.028;2022-08-21T06:14:02;17.80;99.90
8947;DHT22;4508;48.790;9.028;2022-08-21T06:16:32;17.10;99.90
8947;DHT22;4508;48.790;9.028;2022-08-21T06:18:58;17.10;99.90
8947;DHT22;4508;48.790;9.028;2022-08-21T06:21:25;17.70;99.90
8947;DHT22;4508;48.790;9.028;2022-08-21T06:23:52;17.60;99.90
8947;DHT22;4508;48.790;9.028;2022-08-21T06:26:19;19.10;99.90
8947;DHT22;4508;48.790;9.028;2022-08-21T06:28:46;19.10;99.90
8947;DHT22;4508;48.790;9.028;2022-08-21T06:31:17;20.50;99.90
8947;DHT22;4508;48.790;9.028;2022-08-21T06:33:44;21.50;99.90
8947;DHT22;4508;48.790;9.028;2022-08-21T06:36:11;22.70;99.90
8947;DHT22;4508;48.790;9.028;2022-08-21T06:38:38;24.20;99.90
8947;DHT22;4508;48.790;9.028;2022-08-21T06:41:06;22.70;99.90
8947;DHT22;4508;48.790;9.028;2022-08-21T06:43:33;24.80;99.90
8947;DHT22;4508;48.790;9.028;2022-08-21T06:46:00;26.00;99.90
8947;DHT22;4508;48.790;9.028;2022-08-21T06:48:28;25.40;99.90
8947;DHT22;4508;48.790;9.028;2022-08-21T06:50:58;24.40;99.90
8947;DHT22;4508;48.790;9.028;2022-08-21T06:53:25;24.40;99.90
8947;DHT22;4508;48.790;9.028;2022-08-21T06:55:52;23.30;99.90
8947;DHT22;4508;48.790;9.028;2022-08-21T06:58:19;23.00;99.90
8947;DHT22;4508;48.790;9.028;2022-08-21T07:00:48;23.20;99.90
8947;DHT22;4508;48.790;9.028;2022-08-21T07:03:18;23.50;99.90
8947;DHT22;4508;48.790;9.028;2022-08-21T07:05:46;23.40;99.90
8947;DHT22;4508;48.790;9.028;2022-08-21T07:08:13;25.60;99.90
8947;DHT22;4508;48.790;9.028;2022-08-21T07:10:40;25.30;99.90
8947;DHT22;4508;48.790;9.028;2022-08-21T07:13:06;23.60;99.90
8947;DHT22;4508;48.790;9.028;2022-08-21T07:15:33;28.10;99.90
8947;DHT22;4508;48.790;9.028;2022-08-21T07:17:59;28.90;99.90
8947;DHT22;4508;48.790;9.028;2022-08-21T07:20:29;29.10;99.90
8947;DHT22;4508;48.790;9.028;2022-08-21T07:23:00;29.60;99.90
8947;DHT22;4508;48.790;9.028;2022-08-21T07:25:28;29.80;99.90
8947;DHT22;4508;48.790;9.028;2022-08-21T07:27:55;30.20;99.90
8947;DHT22;4508;48.790;9.028;2022-08-21T07:30:23;29.70;99.90
8947;DHT22;4508;48.790;9.028;2022-08-21T07:32:50;28.80;99.90
8947;DHT22;4508;48.790;9.028;2022-08-21T07:35:17;29.40;99.90
8947;DHT22;4508;48.790;9.028;2022-08-21T07:37:45;31.10;99.90
8947;DHT22;4508;48.790;9.028;2022-08-21T07:40:14;31.90;99.90
8947;DHT22;4508;48.790;9.028;2022-08-21T07:42:43;31.50;99.90
8947;DHT22;4508;48.790;9.028;2022-08-21T07:45:11;30.70;98.60
8947;DHT22;4508;48.790;9.028;2022-08-21T07:47:38;30.60;98.70
8947;DHT22;4508;48.790;9.028;2022-08-21T07:50:06;31.60;97.90
8947;DHT22;4508;48.790;9.028;2022-08-21T07:52:33;30.20;96.60
8947;DHT22;4508;48.790;9.028;2022-08-21T07:55:00;32.40;97.30
8947;DHT22;4508;48.790;9.028;2022-08-21T07:57:28;32.60;95.90
8947;DHT22;4508;48.790;9.028;2022-08-21T07:59:55;32.30;95.50
8947;DHT22;4508;48.790;9.028;2022-08-21T08:02:23;33.30;95.00
8947;DHT22;4508;48.790;9.028;2022-08-21T08:04:50;30.40;93.40
8947;DHT22;4508;48.790;9.028;2022-08-21T08:07:17;27.70;96.40
8947;DHT22;4508;48.790;9.028;2022-08-21T08:09:44;32.40;95.60
8947;DHT22;4508;48.790;9.028;2022-08-21T08:12:11;32.60;93.40
8947;DHT22;4508;48.790;9.028;2022-08-21T08:14:39;34.10;92.70
8947;DHT22;4508;48.790;9.028;2022-08-21T08:17:06;33.40;91.60
8947;DHT22;4508;48.790;9.028;2022-08-21T08:19:33;33.00;91.00
8947;DHT22;4508;48.790;9.028;2022-08-21T08:22:00;32.90;91.70
8947;DHT22;4508;48.790;9.028;2022-08-21T08:24:27;32.40;91.50
8947;DHT22;4508;48.790;9.028;2022-08-21T08:26:54;34.00;90.00
8947;DHT22;4508;48.790;9.028;2022-08-21T08:29:22;34.10;89.00
8947;DHT22;4508;48.790;9.028;2022-08-21T08:31:50;35.00;87.40
8947;DHT22;4508;48.790;9.028;2022-08-21T08:34:17;31.80;87.60
8947;DHT22;4508;48.790;9.028;2022-08-21T08:36:45;32.30;88.30
8947;DHT22;4508;48.790;9.028;2022-08-21T08:39:13;33.80;86.20
8947;DHT22;4508;48.790;9.028;2022-08-21T08:41:41;34.10;83.30
8947;DHT22;4508;48.790;9.028;2022-08-21T08:44:09;34.00;82.20
8947;DHT22;4508;48.790;9.028;2022-08-21T08:46:40;34.20;83.60
8947;DHT22;4508;48.790;9.028;2022-08-21T08:49:13;33.20;84.20
8947;DHT22;4508;48.790;9.028;2022-08-21T08:51:45;32.70;83.70
8947;DHT22;4508;48.790;9.028;2022-08-21T08:54:17;31.20;84.30
8947;DHT22;4508;48.790;9.028;2022-08-21T08:56:45;33.20;86.30
8947;DHT22;4508;48.790;9.028;2022-08-21T08:59:15;34.40;82.80
8947;DHT22;4508;48.790;9.028;2022-08-21T09:01:43;34.60;81.70
8947;DHT22;4508;48.790;9.028;2022-08-21T09:04:12;33.80;81.80
8947;DHT22;4508;48.790;9.028;2022-08-21T09:06:51;34.20;79.90
8947;DHT22;4508;48.790;9.028;2022-08-21T09:09:30;35.00;79.40
8947;DHT22;4508;48.790;9.028;2022-08-21T09:12:09;34.70;78.40
8947;DHT22;4508;48.790;9.028;2022-08-21T09:14:47;33.50;78.10
8947;DHT22;4508;48.790;9.028;2022-08-21T09:17:25;32.40;78.60
8947;DHT22;4508;48.790;9.028;2022-08-21T09:20:08;30.90;79.80
8947;DHT22;4508;48.790;9.028;2022-08-21T09:22:42;30.00;81.20
8947;DHT22;4508;48.790;9.028;2022-08-21T09:25:17;32.60;80.00
8947;DHT22;4508;48.790;9.028;2022-08-21T09:27:46;33.00;78.20
8947;DHT22;4508;48.790;9.028;2022-08-21T09:30:14;31.30;77.20
8947;DHT22;4508;48.790;9.028;2022-08-21T09:32:42;30.50;78.30
8947;DHT22;4508;48.790;9.028;2022-08-21T09:35:13;29.50;79.90
8947;DHT22;4508;48.790;9.028;2022-08-21T09:37:49;29.80;79.90
8947;DHT22;4508;48.790;9.028;2022-08-21T09:40:26;29.70;80.50
8947;DHT22;4508;48.790;9.028;2022-08-21T09:42:57;29.70;80.70
8947;DHT22;4508;48.790;9.028;2022-08-21T09:45:25;30.20;80.90
8947;DHT22;4508;48.790;9.028;2022-08-21T09:47:52;30.90;80.00
8947;DHT22;4508;48.790;9.028;2022-08-21T09:50:24;30.90;79.90
8947;DHT22;4508;48.790;9.028;2022-08-21T09:52:54;31.70;78.60
8947;DHT22;4508;48.790;9.028;2022-08-21T09:55:31;32.40;78.20
8947;DHT22;4508;48.790;9.028;2022-08-21T10:01:30;28.70;79.60
8947;DHT22;4508;48.790;9.028;2022-08-21T10:04:03;30.10;80.00
8947;DHT22;4508;48.790;9.028;2022-08-21T10:06:32;30.20;80.30
8947;DHT22;4508;48.790;9.028;2022-08-21T10:09:05;31.30;77.50
8947;DHT22;4508;48.790;9.028;2022-08-21T10:11:33;29.50;79.50
8947;DHT22;4508;48.790;9.028;2022-08-21T10:14:08;30.90;77.80
8947;DHT22;4508;48.790;9.028;2022-08-21T10:20:17;29.90;78.70
8947;DHT22;4508;48.790;9.028;2022-08-21T10:23:01;29.90;78.70
8947;DHT22;4508;48.790;9.028;2022-08-21T10:25:33;28.60;81.80
8947;DHT22;4508;48.790;9.028;2022-08-21T10:28:07;30.90;77.80
8947;DHT22;4508;48.790;9.028;2022-08-21T10:30:40;31.30;78.30
8947;DHT22;4508;48.790;9.028;2022-08-21T10:33:17;29.90;78.80
8947;DHT22;4508;48.790;9.028;2022-08-21T10:35:51;30.60;79.30
8947;DHT22;4508;48.790;9.028;2022-08-21T10:41:28;31.30;77.50
8947;DHT22;4508;48.790;9.028;2022-08-21T10:44:06;32.00;78.00
8947;DHT22;4508;48.790;9.028;2022-08-21T10:46:42;32.90;78.20
8947;DHT22;4508;48.790;9.028;2022-08-21T10:49:21;32.80;77.20
8947;DHT22;4508;48.790;9.028;2022-08-21T10:51:54;31.90;77.20
8947;DHT22;4508;48.790;9.028;2022-08-21T10:54:30;30.30;78.10
8947;DHT22;4508;48.790;9.028;2022-08-21T10:57:02;29.80;78.80
8947;DHT22;4508;48.790;9.028;2022-08-21T10:59:34;30.50;79.40
8947;DHT22;4508;48.790;9.028;2022-08-21T11:02:11;32.10;79.70
8947;DHT22;4508;48.790;9.028;2022-08-21T11:04:52;32.30;78.40
8947;DHT22;4508;48.790;9.028;2022-08-21T11:11:22;30.10;78.70
8947;DHT22;4508;48.790;9.028;2022-08-21T11:13:55;30.80;77.80
8947;DHT22;4508;48.790;9.028;2022-08-21T11:16:29;30.40;78.80
8947;DHT22;4508;48.790;9.028;2022-08-21T11:19:02;30.40;78.70
8947;DHT22;4508;48.790;9.028;2022-08-21T11:21:36;31.20;80.10
8947;DHT22;4508;48.790;9.028;2022-08-21T11:24:16;31.90;76.60
8947;DHT22;4508;48.790;9.028;2022-08-21T11:26:49;31.10;77.80
8947;DHT22;4508;48.790;9.028;2022-08-21T11:29:22;31.70;78.40
8947;DHT22;4508;48.790;9.028;2022-08-21T11:35:20;32.00;76.10
8947;DHT22;4508;48.790;9.028;2022-08-21T11:37:59;33.90;77.20
8947;DHT22;4508;48.790;9.028;2022-08-21T11:43:58;30.50;77.00
8947;DHT22;4508;48.790;9.028;2022-08-21T11:46:35;31.50;77.80
8947;DHT22;4508;48.790;9.028;2022-08-21T11:49:26;30.70;77.20
8947;DHT22;4508;48.790;9.028;2022-08-21T11:52:03;31.70;78.90
8947;DHT22;4508;48.790;9.028;2022-08-21T11:54:36;32.30;78.20
8947;DHT22;4508;48.790;9.028;2022-08-21T11:57:07;31.30;75.30
8947;DHT22;4508;48.790;9.028;2022-08-21T11:59:42;32.30;76.60
8947;DHT22;4508;48.790;9.028;2022-08-21T12:02:14;32.50;74.70
8947;DHT22;4508;48.790;9.028;2022-08-21T12:04:45;31.70;75.00
8947;DHT22;4508;48.790;9.028;2022-08-21T12:07:17;32.60;73.00
8947;DHT22;4508;48.790;9.028;2022-08-21T12:09:53;32.10;75.10
8947;DHT22;4508;48.790;9.028;2022-08-21T12:12:26;32.50;75.70
8947;DHT22;4508;48.790;9.028;2022-08-21T12:15:16;33.40;75.50
8947;DHT22;4508;48.790;9.028;2022-08-21T12:17:53;31.90;73.60
8947;DHT22;4508;48.790;9.028;2022-08-21T12:20:37;31.60;73.90
8947;DHT22;4508;48.790;9.028;2022-08-21T12:23:16;30.40;75.30
8947;DHT22;4508;48.790;9.028;2022-08-21T12:25:46;29.70;75.70
8947;DHT22;4508;48.790;9.028;2022-08-21T12:28:20;29.20;76.70
8947;DHT22;4508;48.790;9.028;2022-08-21T12:30:49;28.90;77.40
8947;DHT22;4508;48.790;9.028;2022-08-21T12:33:23;28.40;77.40
8947;DHT22;4508;48.790;9.028;2022-08-21T12:35:53;28.80;76.90
8947;DHT22;4508;48.790;9.028;2022-08-21T12:38:29;28.40;77.30
8947;DHT22;4508;48.790;9.028;2022-08-21T12:41:01;28.40;78.10
8947;DHT22;4508;48.790;9.028;2022-08-21T12:43:31;28.50;77.40
8947;DHT22;4508;48.790;9.028;2022-08-21T12:46:02;29.00;77.20
8947;DHT22;4508;48.790;9.028;2022-08-21T12:48:33;29.10;77.20
8947;DHT22;4508;48.790;9.028;2022-08-21T12:51:08;28.20;78.00
8947;DHT22;4508;48.790;9.028;2022-08-21T12:53:42;29.10;77.90
8947;DHT22;4508;48.790;9.028;2022-08-21T12:56:13;29.10;77.10
8947;DHT22;4508;48.790;9.028;2022-08-21T12:58:43;29.60;77.70
8947;DHT22;4508;48.790;9.028;2022-08-21T13:01:19;29.50;78.30
8947;DHT22;4508;48.790;9.028;2022-08-21T13:03:48;29.50;77.80
8947;DHT22;4508;48.790;9.028;2022-08-21T13:06:17;29.80;76.70
8947;DHT22;4508;48.790;9.028;2022-08-21T13:08:47;28.80;77.30
8947;DHT22;4508;48.790;9.028;2022-08-21T13:11:16;29.90;75.90
8947;DHT22;4508;48.790;9.028;2022-08-21T13:13:48;30.00;76.50
8947;DHT22;4508;48.790;9.028;2022-08-21T13:16:22;29.10;77.50
8947;DHT22;4508;48.790;9.028;2022-08-21T13:18:56;28.50;77.60
8947;DHT22;4508;48.790;9.028;2022-08-21T13:21:29;29.40;77.40
8947;DHT22;4508;48.790;9.028;2022-08-21T13:24:11;29.40;76.90
8947;DHT22;4508;48.790;9.028;2022-08-21T13:26:39;29.80;76.30
8947;DHT22;4508;48.790;9.028;2022-08-21T13:29:07;29.50;75.80
8947;DHT22;4508;48.790;9.028;2022-08-21T13:31:39;29.50;75.70
8947;DHT22;4508;48.790;9.028;2022-08-21T13:34:09;28.60;77.30
8947;DHT22;4508;48.790;9.028;2022-08-21T13:36:39;28.90;76.10
8947;DHT22;4508;48.790;9.028;2022-08-21T13:39:11;29.30;76.20
8947;DHT22;4508;48.790;9.028;2022-08-21T13:41:41;29.80;75.60
8947;DHT22;4508;48.790;9.028;2022-08-21T13:44:15;30.50;76.50
8947;DHT22;4508;48.790;9.028;2022-08-21T13:53:31;30.80;75.30
8947;DHT22;4508;48.790;9.028;2022-08-21T13:59:26;30.90;72.60
8947;DHT22;4508;48.790;9.028;2022-08-21T14:01:56;31.40;74.60
8947;DHT22;4508;48.790;9.028;2022-08-21T14:04:29;32.40;72.50
8947;DHT22;4508;48.790;9.028;2022-08-21T14:10:22;32.20;69.60
8947;DHT22;4508;48.790;9.028;2022-08-21T14:12:56;30.50;71.60
8947;DHT22;4508;48.790;9.028;2022-08-21T14:15:26;30.80;71.00
8947;DHT22;4508;48.790;9.028;2022-08-21T14:17:54;31.30;70.70
8947;DHT22;4508;48.790;9.028;2022-08-21T14:20:30;31.50;70.70
8947;DHT22;4508;48.790;9.028;2022-08-21T14:22:58;32.00;69.90
8947;DHT22;4508;48.790;9.028;2022-08-21T14:25:37;31.90;70.50
8947;DHT22;4508;48.790;9.028;2022-08-21T14:28:15;32.10;70.30
8947;DHT22;4508;48.790;9.028;2022-08-21T14:30:45;32.30;69.20
8947;DHT22;4508;48.790;9.028;2022-08-21T14:33:18;31.80;69.70
8947;DHT22;4508;48.790;9.028;2022-08-21T14:35:47;30.90;69.00
8947;DHT22;4508;48.790;9.028;2022-08-21T14:38:15;30.20;70.50
8947;DHT22;4508;48.790;9.028;2022-08-21T14:40:44;30.90;70.70
8947;DHT22;4508;48.790;9.028;2022-08-21T14:43:13;30.10;70.20
8947;DHT22;4508;48.790;9.028;2022-08-21T14:45:40;29.70;70.70
8947;DHT22;4508;48.790;9.028;2022-08-21T14:48:09;29.70;70.00
8947;DHT22;4508;48.790;9.028;2022-08-21T14:50:36;29.50;71.20
8947;DHT22;4508;48.790;9.028;2022-08-21T14:53:04;29.00;71.00
8947;DHT22;4508;48.790;9.028;2022-08-21T14:55:31;29.00;72.10
8947;DHT22;4508;48.790;9.028;2022-08-21T14:58:22;29.20;70.70
8947;DHT22;4508;48.790;9.028;2022-08-21T15:00:50;28.80;71.20
8947;DHT22;4508;48.790;9.028;2022-08-21T15:03:18;29.40;72.50
8947;DHT22;4508;48.790;9.028;2022-08-21T15:05:47;29.50;71.50
8947;DHT22;4508;48.790;9.028;2022-08-21T15:08:14;29.20;71.40
8947;DHT22;4508;48.790;9.028;2022-08-21T15:10:41;29.10;70.70
8947;DHT22;4508;48.790;9.028;2022-08-21T15:16:32;29.10;71.60
8947;DHT22;4508;48.790;9.028;2022-08-21T15:19:00;28.90;71.50
8947;DHT22;4508;48.790;9.028;2022-08-21T15:32:03;28.20;71.30
8947;DHT22;4508;48.790;9.028;2022-08-21T15:35:16;29.70;72.10
8947;DHT22;4508;48.790;9.028;2022-08-21T15:37:43;28.90;69.90
8947;DHT22;4508;48.790;9.028;2022-08-21T15:40:10;28.80;71.00
8947;DHT22;4508;48.790;9.028;2022-08-21T15:46:00;28.20;71.90
8947;DHT22;4508;48.790;9.028;2022-08-21T15:48:29;28.50;70.90
8947;DHT22;4508;48.790;9.028;2022-08-21T15:50:56;29.10;71.20
8947;DHT22;4508;48.790;9.028;2022-08-21T15:53:23;29.60;70.50
8947;DHT22;4508;48.790;9.028;2022-08-21T15:55:50;28.90;70.30
8947;DHT22;4508;48.790;9.028;2022-08-21T15:58:17;28.20;71.20
8947;DHT22;4508;48.790;9.028;2022-08-21T16:00:45;27.90;71.20
8947;DHT22;4508;48.790;9.028;2022-08-21T16:03:15;28.40;71.80
8947;DHT22;4508;48.790;9.028;2022-08-21T16:09:08;27.90;72.00
8947;DHT22;4508;48.790;9.028;2022-08-21T16:11:35;27.90;72.00
8947;DHT22;4508;48.790;9.028;2022-08-21T16:14:02;27.90;72.00
8947;DHT22;4508;48.790;9.028;2022-08-21T16:26:36;27.40;72.60
8947;DHT22;4508;48.790;9.028;2022-08-21T16:29:04;27.60;72.50
8947;DHT22;4508;48.790;9.028;2022-08-21T16:34:54;27.80;72.40
8947;DHT22;4508;48.790;9.028;2022-08-21T16:37:21;27.80;72.30
8947;DHT22;4508;48.790;9.028;2022-08-21T16:39:48;27.70;73.10
8947;DHT22;4508;48.790;9.028;2022-08-21T16:42:18;27.40;72.80
8947;DHT22;4508;48.790;9.028;2022-08-21T16:44:46;27.40;72.90
8947;DHT22;4508;48.790;9.028;2022-08-21T16:47:16;27.10;73.30
8947;DHT22;4508;48.790;9.028;2022-08-21T16:49:43;27.00;73.30
8947;DHT22;4508;48.790;9.028;2022-08-21T16:52:11;26.60;74.50
8947;DHT22;4508;48.790;9.028;2022-08-21T16:54:37;26.70;73.90
8947;DHT22;4508;48.790;9.028;2022-08-21T16:57:05;26.40;74.00
8947;DHT22;4508;48.790;9.028;2022-08-21T16:59:33;26.70;74.30
8947;DHT22;4508;48.790;9.028;2022-08-21T17:02:00;26.90;73.50
8947;DHT22;4508;48.790;9.028;2022-08-21T17:04:27;26.60;73.60
8947;DHT22;4508;48.790;9.028;2022-08-21T17:06:55;26.30;74.00
8947;DHT22;4508;48.790;9.028;2022-08-21T17:09:22;26.00;74.20
8947;DHT22;4508;48.790;9.028;2022-08-21T17:11:48;26.00;74.60
8947;DHT22;4508;48.790;9.028;2022-08-21T17:14:16;26.00;74.80
8947;DHT22;4508;48.790;9.028;2022-08-21T17:16:46;26.10;75.10
8947;DHT22;4508;48.790;9.028;2022-08-21T17:19:13;26.30;74.70
8947;DHT22;4508;48.790;9.028;2022-08-21T17:21:40;26.00;74.90
8947;DHT22;4508;48.790;9.028;2022-08-21T17:24:07;26.00;75.20
8947;DHT22;4508;48.790;9.028;2022-08-21T17:26:34;25.60;75.40